Time;durP1;ratioP1;P1;durP2;ratioP2;P2;SDS_P1;SDS_P2;PMS_P1;PMS_P2;Temp;Humidity;BMP_temperature;BMP_pressure;BME280_temperature;BME280_humidity;BME280_pressure;Samples;Min_cycle;Max_cycle;Signal;HPM_P1;HPM_P2
2022/06/20 00:02:03;;;;;;;8.15;1.75;;;;;;;14.54;81.52;101060.31;5023054;28;20435;-84
2022/06/20 00:04:28;;;;;;;8.45;1.77;;;;;;;14.44;80.92;101064.16;5002658;28;20033;-85
2022/06/20 00:06:55;;;;;;;5.78;1.60;;;;;;;14.37;81.84;101070.06;4992489;28;20045;-84
2022/06/20 00:09:20;;;;;;;3.10;1.38;;;;;;;14.43;82.10;101059.91;5000026;28;20079;-85
2022/06/20 00:11:49;;;;;;;9.68;1.88;;;;;;;14.46;82.12;101054.34;4998808;28;20046;-82
2022/06/20 00:14:17;;;;;;;6.35;1.63;;;;;;;14.43;81.35;101042.47;4985924;28;20029;-85
2022/06/20 00:16:44;;;;;;;6.05;2.03;;;;;;;14.51;81.04;101036.38;4993267;28;20033;-87
2022/06/20 00:19:10;;;;;;;4.88;1.73;;;;;;;14.48;82.00;101029.69;5007763;28;20065;-85
2022/06/20 00:21:37;;;;;;;6.20;1.70;;;;;;;14.53;82.62;101023.97;4986782;28;20040;-84
2022/06/20 00:24:03;;;;;;;8.20;2.33;;;;;;;14.54;82.67;101008.13;5020472;28;20438;-86
2022/06/20 00:26:29;;;;;;;8.63;2.58;;;;;;;14.55;82.58;100998.50;5002906;28;20045;-85
2022/06/20 00:28:56;;;;;;;8.95;2.55;;;;;;;14.56;82.31;100995.72;5007082;28;20056;-85
2022/06/20 00:31:21;;;;;;;6.28;2.53;;;;;;;14.56;82.31;101003.56;4988583;28;20080;-86
2022/06/20 00:33:48;;;;;;;6.78;1.85;;;;;;;14.60;82.24;100998.81;4991554;28;20034;-86
2022/06/20 00:36:13;;;;;;;5.38;1.80;;;;;;;14.65;81.40;101008.72;4987000;28;20034;-84
2022/06/20 00:38:41;;;;;;;7.30;2.20;;;;;;;14.68;81.22;101019.63;4999872;28;20033;-84
2022/06/20 00:41:16;;;;;;;5.95;2.47;;;;;;;14.72;81.20;101015.66;4979543;28;20459;-87
2022/06/20 00:43:45;;;;;;;7.15;2.67;;;;;;;14.75;79.67;101017.13;5003710;28;20585;-83
2022/06/20 00:46:29;;;;;;;9.52;2.78;;;;;;;14.66;80.12;101008.53;5008311;28;20610;-86
2022/06/20 00:49:25;;;;;;;7.07;2.78;;;;;;;14.60;80.25;100997.03;5001628;28;20487;-86
2022/06/20 00:51:56;;;;;;;5.68;2.95;;;;;;;14.60;80.68;101014.47;5000075;28;20127;-86
2022/06/20 00:54:33;;;;;;;6.88;2.95;;;;;;;14.67;81.11;101061.53;4986569;28;20041;-86
2022/06/20 00:57:18;;;;;;;10.95;2.83;;;;;;;14.72;81.67;101106.19;5002684;28;20057;-86
2022/06/20 00:59:51;;;;;;;4.80;3.03;;;;;;;14.73;81.88;101149.56;4997199;28;20176;-86
2022/06/20 01:02:20;;;;;;;;;;;;;;;14.75;81.93;101192.81;4978945;28;20060;-85
2022/06/20 01:04:52;;;;;;;6.93;3.05;;;;;;;14.69;82.99;101197.88;5001943;28;19921;-85
2022/06/20 01:07:45;;;;;;;8.75;3.28;;;;;;;14.74;83.63;101227.72;5012627;28;20041;-86
2022/06/20 01:10:12;;;;;;;6.85;3.03;;;;;;;14.76;83.59;101256.25;5003096;28;20041;-83
2022/06/20 01:13:00;;;;;;;11.02;3.40;;;;;;;14.69;84.85;101273.59;4997500;28;20112;-82
2022/06/20 01:15:34;;;;;;;11.60;2.90;;;;;;;14.68;85.47;101274.59;5005074;28;20094;-83
2022/06/20 01:17:59;;;;;;;12.15;3.00;;;;;;;14.54;86.96;101270.84;4999035;28;20403;-81
2022/06/20 01:20:29;;;;;;;13.52;2.78;;;;;;;14.46;88.10;101284.75;5021589;28;20040;-83
2022/06/20 01:23:00;;;;;;;8.30;3.05;;;;;;;14.40;89.08;101291.44;4996736;28;20080;-82
2022/06/20 01:25:41;;;;;;;11.80;2.90;;;;;;;14.33;90.54;101287.88;5004629;28;20039;-84
2022/06/20 01:28:11;;;;;;;12.30;3.10;;;;;;;14.30;91.06;101271.78;5003716;28;20030;-83
2022/06/20 01:30:41;;;;;;;9.45;2.92;;;;;;;14.25;90.94;101246.19;5003657;28;20088;-83
2022/06/20 01:33:08;;;;;;;7.18;2.22;;;;;;;14.28;90.92;101245.88;5002446;28;20034;-83
2022/06/20 01:38:19;;;;;;;6.65;2.28;;;;;;;14.36;90.55;101214.53;5017407;28;20071;-83
2022/06/20 01:43:35;;;;;;;10.25;2.72;;;;;;;14.26;90.15;101185.25;5020040;28;20179;-83
2022/06/20 01:46:09;;;;;;;11.85;2.60;;;;;;;14.25;90.85;101181.00;5003402;28;20041;-83
2022/06/20 01:48:38;;;;;;;11.45;2.80;;;;;;;14.23;91.36;101169.91;5002888;28;20304;-83
2022/06/20 01:51:08;;;;;;;9.20;3.35;;;;;;;14.17;91.13;101144.53;4988250;28;20045;-83
2022/06/20 01:53:34;;;;;;;9.52;3.28;;;;;;;14.08;91.26;101148.16;4987306;28;20550;-82
2022/06/20 01:56:02;;;;;;;7.00;2.50;;;;;;;14.05;91.89;101135.44;4994084;28;20037;-84
2022/06/20 01:58:33;;;;;;;6.50;3.10;;;;;;;14.12;90.45;101123.38;5023622;28;20493;-84
2022/06/20 02:01:00;;;;;;;11.70;3.10;;;;;;;14.00;90.61;101108.09;5002132;28;20044;-83
2022/06/20 02:03:26;;;;;;;5.35;3.42;;;;;;;14.01;92.15;101101.09;5001916;28;20021;-82
2022/06/20 02:05:55;;;;;;;6.15;2.72;;;;;;;13.95;91.78;101070.50;5009069;28;20385;-83
2022/06/20 02:08:23;;;;;;;10.90;2.97;;;;;;;13.89;92.14;101055.53;5000590;28;20079;-84
2022/06/20 02:10:56;;;;;;;11.85;3.95;;;;;;;13.81;92.91;101045.97;5015310;28;20040;-83
2022/06/20 02:13:24;;;;;;;10.07;2.90;;;;;;;13.81;93.68;101044.19;4998664;28;20490;-83
2022/06/20 02:15:53;;;;;;;8.75;3.03;;;;;;;13.79;93.90;101020.09;5007705;28;20095;-83
2022/06/20 02:18:20;;;;;;;9.27;2.78;;;;;;;13.68;93.18;100997.03;5011297;28;20100;-86
2022/06/20 02:20:49;;;;;;;12.23;3.78;;;;;;;13.53;92.80;100972.69;5007257;28;20048;-82
2022/06/20 02:23:25;;;;;;;9.40;3.83;;;;;;;13.37;93.77;100961.38;4990091;28;20047;-83
2022/06/20 02:25:53;;;;;;;13.80;4.78;;;;;;;13.31;94.86;100956.81;5019844;28;20551;-82
2022/06/20 02:28:25;;;;;;;9.63;3.83;;;;;;;13.24;94.29;100929.78;5000117;28;20407;-82
2022/06/20 02:30:53;;;;;;;14.80;3.55;;;;;;;13.20;94.67;100918.94;4988242;28;20140;-83
2022/06/20 02:33:26;;;;;;;11.57;4.43;;;;;;;13.25;94.70;100906.19;5023020;28;20025;-82
2022/06/20 02:35:53;;;;;;;12.50;4.45;;;;;;;13.34;94.22;100907.00;5007719;28;20398;-83
2022/06/20 02:38:20;;;;;;;11.95;4.22;;;;;;;13.32;94.69;100906.38;5005774;28;20091;-83
2022/06/20 02:40:47;;;;;;;10.80;4.18;;;;;;;13.30;94.17;100912.69;4994731;28;20787;-82
2022/06/20 02:43:51;;;;;;;12.10;3.80;;;;;;;13.31;93.57;100911.75;5005147;28;20545;-84
2022/06/20 02:46:21;;;;;;;16.60;3.55;;;;;;;13.30;93.23;100918.75;4970417;28;20058;-86
2022/06/20 02:48:50;;;;;;;10.05;4.10;;;;;;;13.16;93.85;100920.22;4993812;28;20045;-84
2022/06/20 02:51:20;;;;;;;11.68;3.40;;;;;;;13.14;94.01;100926.59;4986714;28;20121;-84
2022/06/20 02:54:06;;;;;;;13.05;3.47;;;;;;;13.10;93.65;100933.94;5000029;28;20037;-85
2022/06/20 02:56:37;;;;;;;8.77;2.97;;;;;;;13.12;93.88;100944.19;4986947;28;20131;-85
2022/06/20 02:59:11;;;;;;;8.80;2.60;;;;;;;13.13;91.97;100938.81;5002134;28;20037;-82
2022/06/20 03:01:46;;;;;;;11.48;3.40;;;;;;;13.11;93.20;100942.56;5000296;28;20487;-84
2022/06/20 03:04:11;;;;;;;5.82;2.50;;;;;;;13.10;92.35;100936.53;5005680;28;20041;-84
2022/06/20 03:06:42;;;;;;;10.32;2.50;;;;;;;13.19;92.46;100937.31;4988869;28;20527;-82
2022/06/20 03:09:18;;;;;;;8.93;3.45;;;;;;;13.20;92.60;100925.91;4986794;28;20041;-86
2022/06/20 03:11:44;;;;;;;8.52;2.78;;;;;;;13.21;91.62;100928.34;5000937;28;20493;-85
2022/06/20 03:14:16;;;;;;;9.60;3.13;;;;;;;13.25;91.94;100928.81;5003311;28;20024;-86
2022/06/20 03:16:42;;;;;;;8.75;2.85;;;;;;;13.15;92.29;100912.63;4989281;28;20045;-85
2022/06/20 03:19:14;;;;;;;12.63;2.97;;;;;;;13.19;92.29;100919.91;4987729;28;20679;-84
2022/06/20 03:21:42;;;;;;;12.25;2.90;;;;;;;13.21;93.18;100933.56;4987174;28;20147;-86
2022/06/20 03:24:14;;;;;;;10.75;2.85;;;;;;;13.16;94.06;100916.81;5004005;28;20040;-87
2022/06/20 03:26:40;;;;;;;9.50;3.45;;;;;;;13.10;94.39;100907.09;5001151;28;20038;-84
2022/06/20 03:29:09;;;;;;;11.93;3.60;;;;;;;13.15;94.14;100908.22;4986919;28;20250;-86
2022/06/20 03:31:34;;;;;;;8.90;2.90;;;;;;;13.19;93.69;100903.47;5003548;28;20029;-83
2022/06/20 03:34:00;;;;;;;17.50;3.10;;;;;;;13.15;93.58;100907.41;4988182;28;20707;-84
2022/06/20 03:36:27;;;;;;;8.07;3.00;;;;;;;13.11;92.93;100906.09;4990435;28;20029;-86
2022/06/20 03:38:54;;;;;;;13.55;3.05;;;;;;;13.14;92.61;100906.56;5006021;28;20460;-85
2022/06/20 03:41:24;;;;;;;9.27;2.88;;;;;;;13.10;92.50;100912.31;5004149;28;20090;-90
2022/06/20 03:43:54;;;;;;;11.88;3.70;;;;;;;13.13;92.05;100920.59;4992403;28;20117;-86
2022/06/20 03:46:28;;;;;;;9.20;2.50;;;;;;;13.08;91.70;100942.91;5003927;28;20029;-86
2022/06/20 03:49:32;;;;;;;11.38;2.30;;;;;;;13.13;91.33;100956.22;5004845;28;20494;-86
2022/06/20 03:52:04;;;;;;;18.95;4.45;;;;;;;13.09;91.33;100966.16;5004540;28;20329;-87
2022/06/20 03:54:40;;;;;;;4.95;2.13;;;;;;;13.05;91.76;100964.84;4990712;28;20397;-87
2022/06/20 03:57:30;;;;;;;9.07;3.00;;;;;;;13.14;91.40;100989.09;5005045;28;20037;-88
2022/06/20 04:00:11;;;;;;;9.68;3.20;;;;;;;13.18;90.86;101014.59;4995594;28;20121;-87
2022/06/20 04:02:42;;;;;;;11.00;2.17;;;;;;;13.22;91.21;101031.53;5023317;28;20041;-86
2022/06/20 04:05:23;;;;;;;7.65;2.08;;;;;;;13.23;91.61;101058.38;4990284;28;20163;-89
2022/06/20 04:07:57;;;;;;;13.77;2.53;;;;;;;13.32;92.22;101091.28;5005951;28;20097;-85
2022/06/20 04:13:31;;;;;;;14.60;2.97;;;;;;;13.37;93.16;101125.44;5001339;28;20124;-88
2022/06/20 04:16:03;;;;;;;9.48;2.53;;;;;;;13.36;93.80;101126.41;4992005;28;20120;-88
2022/06/20 04:18:48;;;;;;;9.02;1.90;;;;;;;13.40;94.15;101139.91;5004935;28;20120;-88
2022/06/20 04:21:41;;;;;;;9.70;2.33;;;;;;;13.41;94.17;101163.19;4989660;28;20444;-88
2022/06/20 04:24:43;;;;;;;9.13;2.23;;;;;;;13.43;94.53;101153.44;5008334;28;20577;-88
2022/06/20 04:27:31;;;;;;;8.38;2.28;;;;;;;13.43;94.45;101161.25;4970360;28;20484;-86
2022/06/20 04:30:05;;;;;;;9.43;2.75;;;;;;;13.45;94.26;101181.91;5012273;28;20069;-86
2022/06/20 04:32:37;;;;;;;5.45;1.98;;;;;;;13.47;94.49;101176.53;5012217;28;20486;-86
2022/06/20 04:35:23;;;;;;;5.35;2.00;;;;;;;13.52;94.15;101174.25;5002412;28;20037;-83
2022/06/20 04:37:57;;;;;;;9.90;2.03;;;;;;;13.50;93.67;101161.38;5000368;28;20383;-86
2022/06/20 04:40:30;;;;;;;6.72;2.15;;;;;;;13.53;93.47;101168.88;4982512;28;20994;-87
2022/06/20 04:43:07;;;;;;;6.53;1.63;;;;;;;13.57;93.20;101169.34;4987280;28;20030;-87
2022/06/20 04:45:45;;;;;;;8.70;2.50;;;;;;;13.59;92.94;101167.38;4991782;28;20060;-85
2022/06/20 04:48:12;;;;;;;6.20;2.35;;;;;;;13.59;93.34;101175.22;4986053;28;20036;-86
2022/06/20 04:50:41;;;;;;;5.13;1.77;;;;;;;13.62;93.30;101173.09;4991009;28;20041;-86
2022/06/20 04:53:12;;;;;;;8.20;1.85;;;;;;;13.66;93.11;101162.34;5001275;28;20053;-86
2022/06/20 04:55:47;;;;;;;8.93;2.85;;;;;;;13.68;93.09;101162.97;4992547;28;20053;-86
2022/06/20 04:58:19;;;;;;;7.70;1.75;;;;;;;13.67;93.19;101161.34;5007428;28;20232;-84
2022/06/20 05:00:47;;;;;;;7.13;2.30;;;;;;;13.66;93.85;101151.91;4989510;28;20038;-87
2022/06/20 05:03:24;;;;;;;11.07;2.70;;;;;;;13.71;93.83;101157.41;5003604;28;20045;-87
2022/06/20 05:05:52;;;;;;;8.85;2.67;;;;;;;13.74;93.39;101160.50;4983072;28;20040;-86
2022/06/20 05:08:34;;;;;;;8.40;2.10;;;;;;;13.74;94.02;101162.31;5005435;28;20033;-87
2022/06/20 05:11:18;;;;;;;9.10;2.58;;;;;;;13.74;94.80;101163.09;4995630;28;20098;-85
2022/06/20 05:13:54;;;;;;;6.82;1.98;;;;;;;13.75;95.57;101156.94;4996031;28;20102;-84
2022/06/20 05:16:30;;;;;;;14.82;2.40;;;;;;;13.72;95.59;101165.06;5002541;28;20050;-85
2022/06/20 05:18:59;;;;;;;7.00;2.53;;;;;;;13.66;95.22;101168.34;4987441;28;20341;-82
2022/06/20 05:21:31;;;;;;;12.23;2.78;;;;;;;13.60;94.65;101159.41;4988601;28;20037;-86
2022/06/20 05:24:05;;;;;;;7.18;2.40;;;;;;;13.55;93.95;101158.28;4997427;28;20042;-85
2022/06/20 05:26:35;;;;;;;9.95;2.20;;;;;;;13.53;93.75;101155.03;4980282;28;20044;-85
2022/06/20 05:29:06;;;;;;;8.90;3.10;;;;;;;13.58;93.81;101166.59;4999797;28;22235;-85
2022/06/20 05:31:36;;;;;;;8.20;2.45;;;;;;;13.56;94.01;101157.28;5000567;28;20363;-86
2022/06/20 05:34:25;;;;;;;11.65;2.85;;;;;;;13.57;94.54;101157.13;4995180;28;20037;-86
2022/06/20 05:37:34;;;;;;;10.02;2.70;;;;;;;13.64;95.20;101167.72;4983428;28;20036;-85
2022/06/20 05:40:03;;;;;;;11.57;3.03;;;;;;;13.59;94.24;101172.59;4968796;28;20045;-87
2022/06/20 05:42:29;;;;;;;15.23;3.20;;;;;;;13.49;93.74;101169.38;4994187;28;20052;-88
2022/06/20 05:44:54;;;;;;;11.48;2.88;;;;;;;13.47;92.63;101171.31;4992956;28;20029;-84
2022/06/20 05:47:24;;;;;;;12.60;2.58;;;;;;;13.53;92.97;101168.06;5010715;28;20544;-86
2022/06/20 05:49:57;;;;;;;12.00;2.75;;;;;;;13.57;93.20;101161.53;4993694;28;20034;-88
2022/06/20 05:52:25;;;;;;;13.05;2.42;;;;;;;13.56;93.42;101163.34;4984911;28;20037;-84
2022/06/20 05:55:00;;;;;;;14.15;2.60;;;;;;;13.52;92.42;101159.41;4984552;28;20045;-87
2022/06/20 05:57:28;;;;;;;12.68;2.78;;;;;;;13.48;93.67;101147.72;4990049;28;20037;-87
2022/06/20 06:00:05;;;;;;;9.20;2.63;;;;;;;13.49;93.19;101146.75;5002499;28;20037;-87
2022/06/20 06:02:50;;;;;;;13.52;2.88;;;;;;;13.51;92.95;101134.34;5009506;28;20042;-88
2022/06/20 06:05:23;;;;;;;12.43;2.90;;;;;;;13.46;92.41;101134.03;5003463;28;20048;-86
2022/06/20 06:08:01;;;;;;;17.50;3.13;;;;;;;13.49;92.73;101143.34;5020718;28;20029;-86
2022/06/20 06:10:47;;;;;;;13.63;2.90;;;;;;;13.41;92.45;101147.56;5005575;28;20045;-85
2022/06/20 06:13:30;;;;;;;11.73;2.85;;;;;;;13.46;92.03;101160.09;4990125;28;20790;-85
2022/06/20 06:18:50;;;;;;;14.93;2.83;;;;;;;13.27;92.23;101147.41;5023922;28;20068;-86
2022/06/20 06:21:17;;;;;;;15.00;3.78;;;;;;;13.23;92.36;101162.53;4995594;28;20387;-90
2022/06/20 06:23:44;;;;;;;10.52;2.33;;;;;;;13.19;92.36;101161.25;4993133;28;20111;-86
2022/06/20 06:26:15;;;;;;;19.02;3.33;;;;;;;13.20;93.55;101166.28;4990740;28;20624;-86
2022/06/20 06:28:41;;;;;;;15.90;2.83;;;;;;;13.29;93.86;101166.28;5007447;28;20033;-85
2022/06/20 06:31:15;;;;;;;9.65;2.47;;;;;;;13.33;94.55;101168.41;4994305;28;20501;-85
2022/06/20 06:33:56;;;;;;;11.07;2.97;;;;;;;13.34;95.51;101180.47;5004692;28;20085;-85
2022/06/20 06:36:40;;;;;;;10.63;2.83;;;;;;;13.37;96.08;101179.31;4980034;28;20041;-86
2022/06/20 06:39:11;;;;;;;13.38;2.80;;;;;;;13.45;96.66;101187.13;5009529;28;20041;-85
2022/06/20 06:41:43;;;;;;;17.40;4.72;;;;;;;13.51;96.94;101181.25;4993669;28;20068;-85
2022/06/20 06:44:32;;;;;;;10.00;2.88;;;;;;;13.58;97.47;101160.53;5008901;28;20029;-87
2022/06/20 06:46:59;;;;;;;9.55;2.67;;;;;;;13.64;97.89;101178.13;5003062;28;20034;-85
2022/06/20 06:49:45;;;;;;;13.73;4.18;;;;;;;13.68;97.94;101176.81;5009310;28;20040;-84
2022/06/20 06:52:33;;;;;;;22.40;7.25;;;;;;;13.70;97.99;101171.44;5005338;28;20041;-85
2022/06/20 06:55:30;;;;;;;14.75;3.50;;;;;;;13.69;97.54;101168.00;4983440;28;20040;-85
2022/06/20 06:58:06;;;;;;;16.52;3.40;;;;;;;13.70;97.36;101174.06;4997725;28;20034;-83
2022/06/20 07:00:41;;;;;;;12.73;3.58;;;;;;;13.69;96.73;101181.03;5025739;28;20050;-85
2022/06/20 07:03:10;;;;;;;11.15;2.67;;;;;;;13.74;96.83;101183.16;5006509;28;20435;-86
2022/06/20 07:05:40;;;;;;;12.55;3.05;;;;;;;13.80;96.58;101188.50;4992516;28;20517;-85
2022/06/20 07:08:12;;;;;;;9.73;3.03;;;;;;;13.87;95.40;101193.88;5004277;28;20057;-85
2022/06/20 07:10:59;;;;;;;13.55;2.88;;;;;;;13.87;95.53;101206.09;4993154;28;20026;-84
2022/06/20 07:13:40;;;;;;;13.75;3.22;;;;;;;13.89;94.82;101210.16;5010010;28;20038;-86
2022/06/20 07:16:28;;;;;;;10.90;2.92;;;;;;;13.85;94.26;101223.69;5006195;28;20091;-85
2022/06/20 07:18:56;;;;;;;9.05;2.67;;;;;;;13.92;94.92;101224.63;4990028;28;20038;-86
2022/06/20 07:21:25;;;;;;;8.20;3.20;;;;;;;14.01;95.14;101221.00;4992930;28;20044;-87
2022/06/20 07:23:58;;;;;;;13.95;3.78;;;;;;;14.08;95.05;101221.97;5011589;28;20630;-86
2022/06/20 07:26:28;;;;;;;9.18;2.38;;;;;;;14.24;94.53;101225.50;5009915;28;20109;-86
2022/06/20 07:29:02;;;;;;;13.32;3.00;;;;;;;14.48;94.22;101233.22;5007051;28;20030;-86
2022/06/20 07:32:04;;;;;;;14.43;4.00;;;;;;;14.57;89.62;101231.41;4993560;28;20495;-86
2022/06/20 07:34:39;;;;;;;16.40;2.80;;;;;;;14.99;87.79;101243.22;4992714;28;20061;-85
2022/06/20 07:37:14;;;;;;;10.75;2.47;;;;;;;15.32;85.74;101241.16;5008355;28;20029;-84
2022/06/20 07:39:58;;;;;;;13.20;2.65;;;;;;;15.38;83.64;101244.88;4981899;28;20026;-86
2022/06/20 07:42:39;;;;;;;11.30;2.20;;;;;;;15.50;80.48;101235.63;5009324;28;20486;-84
2022/06/20 07:45:41;;;;;;;9.63;2.05;;;;;;;16.06;79.70;101232.59;5008404;28;20033;-85
2022/06/20 07:48:12;;;;;;;9.57;2.78;;;;;;;15.93;77.23;101230.63;5006768;28;20025;-86
2022/06/20 07:50:43;;;;;;;11.57;1.77;;;;;;;16.30;76.23;101228.06;4995940;28;20604;-87
2022/06/20 07:53:15;;;;;;;8.05;2.10;;;;;;;16.83;75.60;101223.44;5005714;28;20041;-83
2022/06/20 07:55:46;;;;;;;11.68;1.42;;;;;;;17.59;72.62;101233.31;4991373;28;20049;-83
2022/06/20 07:58:19;;;;;;;6.97;1.63;;;;;;;18.23;70.91;101229.66;5007350;28;20799;-88
2022/06/20 08:00:49;;;;;;;8.85;1.50;;;;;;;18.65;67.05;101242.72;5018937;28;20025;-87
2022/06/20 08:03:26;;;;;;;7.03;1.60;;;;;;;19.26;65.48;101233.91;4990181;28;20040;-86
2022/06/20 08:06:00;;;;;;;11.50;2.13;;;;;;;19.55;63.37;101229.22;5012184;28;20033;-86
2022/06/20 08:08:40;;;;;;;12.93;2.03;;;;;;;19.40;63.87;101239.94;4992401;28;20044;-84
2022/06/20 08:11:40;;;;;;;10.60;2.33;;;;;;;19.64;62.20;101247.19;4990617;28;20107;-88
2022/06/20 08:14:05;;;;;;;7.78;1.55;;;;;;;20.35;58.53;101240.31;5002603;28;20064;-88
2022/06/20 08:16:31;;;;;;;7.65;2.00;;;;;;;20.87;59.35;101249.97;4992726;28;20033;-86
2022/06/20 08:18:58;;;;;;;7.78;1.90;;;;;;;20.28;61.06;101260.59;4983717;28;20112;-87
2022/06/20 08:21:33;;;;;;;8.48;1.70;;;;;;;19.19;60.13;101269.88;5003360;28;20029;-89
2022/06/20 08:24:10;;;;;;;6.00;1.13;;;;;;;19.05;61.25;101271.69;5002118;28;21050;-89
2022/06/20 08:26:46;;;;;;;8.95;1.40;;;;;;;19.81;56.92;101260.75;5006770;28;20041;-90
2022/06/20 08:29:19;;;;;;;10.93;1.95;;;;;;;19.90;57.88;101271.06;5004472;28;20187;-87
2022/06/20 08:31:50;;;;;;;7.65;1.90;;;;;;;19.95;58.37;101285.22;4990703;28;20025;-90
2022/06/20 08:34:32;;;;;;;5.78;1.67;;;;;;;19.64;55.39;101284.00;4987671;28;20493;-85
2022/06/20 08:37:18;;;;;;;7.40;1.33;;;;;;;20.12;55.22;101275.06;5003593;28;20096;-86
2022/06/20 08:39:57;;;;;;;4.38;1.40;;;;;;;20.96;53.66;101275.88;4992774;28;20088;-89
2022/06/20 08:42:37;;;;;;;6.38;1.10;;;;;;;21.61;53.35;101277.41;4987663;28;20108;-89
2022/06/20 08:45:18;;;;;;;9.13;1.10;;;;;;;21.68;53.90;101272.88;5007528;28;20124;-90
2022/06/20 08:47:59;;;;;;;3.90;1.20;;;;;;;20.39;54.87;101286.28;5008265;28;20049;-87
2022/06/20 08:50:54;;;;;;;8.13;1.10;;;;;;;19.42;55.65;101298.38;4993743;28;20044;-87
2022/06/20 08:53:51;;;;;;;3.45;0.88;;;;;;;19.18;59.22;101295.38;5003775;28;20048;-87
2022/06/20 08:57:23;;;;;;;5.47;1.65;;;;;;;19.70;56.34;101295.53;5001503;28;20040;-88
2022/06/20 09:00:05;;;;;;;4.38;1.20;;;;;;;21.15;52.77;101289.09;4942694;28;20043;-89
2022/06/20 09:02:42;;;;;;;9.40;1.50;;;;;;;21.55;49.32;101292.25;4950438;28;20078;-91
2022/06/20 09:05:28;;;;;;;5.47;2.10;;;;;;;21.97;48.27;101281.88;4968258;28;20041;-89
2022/06/20 09:08:27;;;;;;;10.75;1.52;;;;;;;21.99;47.54;101289.59;4993732;28;20490;-91
2022/06/20 09:11:23;;;;;;;6.95;0.98;;;;;;;21.76;46.53;101287.59;4980776;28;20034;-89
2022/06/20 09:14:00;;;;;;;4.63;1.20;;;;;;;21.06;47.41;101296.50;4991142;28;20037;-90
2022/06/20 09:16:32;;;;;;;3.28;0.90;;;;;;;20.52;47.49;101295.94;5003668;28;20033;-90
2022/06/20 09:19:24;;;;;;;4.68;1.00;;;;;;;20.24;51.79;101304.16;4984672;28;20037;-86
2022/06/20 09:22:05;;;;;;;3.42;1.30;;;;;;;19.94;52.52;101309.91;4986927;28;20124;-89
2022/06/20 09:24:39;;;;;;;5.95;1.23;;;;;;;19.79;53.22;101314.59;5032586;23;20046;-88
2022/06/20 09:27:15;;;;;;;3.25;0.82;;;;;;;19.59;53.88;101322.47;4986755;28;20038;-89
2022/06/20 09:30:00;;;;;;;5.15;1.15;;;;;;;19.44;53.66;101320.88;4986236;28;20490;-88
2022/06/20 09:33:02;;;;;;;5.00;1.10;;;;;;;19.32;55.05;101317.19;4955577;28;20137;-91
2022/06/20 09:35:52;;;;;;;6.20;1.20;;;;;;;19.34;54.24;101322.25;4965559;28;20097;-91
2022/06/20 09:38:43;;;;;;;6.03;1.13;;;;;;;19.82;52.76;101316.81;4966673;28;20476;-91
2022/06/20 09:42:05;;;;;;;8.82;1.50;;;;;;;19.94;52.08;101324.91;4971342;28;20372;-91
2022/06/20 09:44:58;;;;;;;6.18;1.85;;;;;;;21.11;48.31;101315.09;4920260;28;20036;-91
2022/06/20 09:47:37;;;;;;;3.67;1.02;;;;;;;21.55;48.12;101318.66;4987344;28;20033;-89
2022/06/20 09:50:12;;;;;;;4.13;1.50;;;;;;;21.00;49.43;101313.13;4979803;28;20034;-85
2022/06/20 09:52:59;;;;;;;3.67;0.90;;;;;;;20.40;48.32;101318.72;4982127;28;20069;-90
2022/06/20 09:55:40;;;;;;;6.18;1.73;;;;;;;19.99;51.21;101318.00;4973393;28;20046;-89
2022/06/20 09:58:24;;;;;;;8.02;1.50;;;;;;;19.65;50.69;101322.47;4979987;28;20046;-90
2022/06/20 10:01:17;;;;;;;3.53;1.30;;;;;;;19.78;52.54;101316.41;4963429;28;20053;-90
2022/06/20 10:03:55;;;;;;;5.25;1.40;;;;;;;20.77;51.49;101319.75;4963881;28;20162;-89
2022/06/20 10:06:54;;;;;;;6.00;1.67;;;;;;;21.50;49.97;101320.31;4981471;28;20050;-91
2022/06/20 10:09:32;;;;;;;4.75;1.10;;;;;;;21.82;46.45;101323.69;4918504;28;20133;-91
2022/06/20 10:12:13;;;;;;;5.03;1.50;;;;;;;21.67;47.61;101318.75;4977311;28;20526;-88
2022/06/20 10:15:02;;;;;;;5.93;1.27;;;;;;;21.12;49.20;101327.25;4947320;28;20034;-90
2022/06/20 10:17:47;;;;;;;3.70;0.90;;;;;;;20.78;47.53;101329.28;4980763;28;20250;-86
2022/06/20 10:20:29;;;;;;;4.97;1.15;;;;;;;20.41;50.32;101330.84;4955012;28;20040;-89
2022/06/20 10:23:04;;;;;;;7.40;2.38;;;;;;;20.40;49.09;101334.50;4959250;28;20038;-90
2022/06/20 10:25:44;;;;;;;4.60;1.27;;;;;;;20.20;48.45;101339.81;4967905;28;20183;-88
2022/06/20 10:28:21;;;;;;;4.03;1.20;;;;;;;20.47;49.70;101334.47;4969728;28;20049;-89
2022/06/20 10:31:04;;;;;;;2.70;1.30;;;;;;;20.68;51.42;101347.41;4970801;28;20052;-88
2022/06/20 10:33:44;;;;;;;2.95;1.00;;;;;;;21.44;50.34;101344.91;4984123;28;20407;-88
2022/06/20 10:36:34;;;;;;;5.88;1.15;;;;;;;21.62;49.18;101346.78;4971774;28;20042;-85
2022/06/20 10:39:31;;;;;;;9.35;1.92;;;;;;;22.01;46.92;101344.81;4953834;28;20072;-89
2022/06/20 10:42:21;;;;;;;4.95;1.10;;;;;;;21.96;47.69;101341.00;4970402;28;20562;-90
2022/06/20 10:45:24;;;;;;;3.47;0.95;;;;;;;21.94;47.61;101345.69;4973068;28;20034;-88
2022/06/20 10:48:08;;;;;;;9.82;2.28;;;;;;;21.71;46.83;101354.22;4964886;28;20023;-92
2022/06/20 10:51:01;;;;;;;12.10;1.60;;;;;;;21.56;47.23;101359.81;4984113;28;21214;-90
2022/06/20 10:53:54;;;;;;;3.70;1.23;;;;;;;21.34;46.00;101363.81;4969902;28;20050;-91
2022/06/20 10:57:02;;;;;;;3.85;1.35;;;;;;;21.41;47.10;101361.16;4982331;28;20065;-90
2022/06/20 11:00:10;;;;;;;4.95;1.13;;;;;;;22.03;44.50;101348.03;4969219;28;20042;-89
2022/06/20 11:03:14;;;;;;;6.38;1.30;;;;;;;22.27;45.25;101346.41;4969944;28;20031;-92
2022/06/20 11:06:08;;;;;;;5.03;1.50;;;;;;;22.18;43.39;101353.78;4962981;28;20121;-89
2022/06/20 11:08:49;;;;;;;8.73;1.70;;;;;;;22.44;43.23;101354.53;4969297;28;20493;-92
2022/06/20 11:11:36;;;;;;;4.88;1.10;;;;;;;22.56;45.10;101342.19;4966776;28;20476;-91
2022/06/20 11:14:19;;;;;;;7.20;1.30;;;;;;;22.57;45.35;101353.56;4968143;28;20339;-85
2022/06/20 11:17:08;;;;;;;3.83;1.65;;;;;;;22.47;44.50;101346.97;4963886;28;20037;-90
2022/06/20 11:20:02;;;;;;;3.13;1.38;;;;;;;22.45;44.98;101354.31;4926365;28;20121;-91
2022/06/20 11:22:41;;;;;;;4.85;1.15;;;;;;;22.04;45.10;101358.41;4939514;28;20575;-87
2022/06/20 11:25:23;;;;;;;6.97;1.40;;;;;;;21.93;44.68;101359.91;4954364;28;20475;-90
2022/06/20 11:27:57;;;;;;;4.47;1.20;;;;;;;22.42;45.31;101351.31;4969593;28;20093;-91
2022/06/20 11:30:40;;;;;;;4.72;1.65;;;;;;;22.19;45.30;101357.22;4952696;28;20049;-89
2022/06/20 11:33:17;;;;;;;5.95;1.42;;;;;;;21.95;44.95;101354.41;4949863;28;20034;-89
2022/06/20 11:36:04;;;;;;;8.18;2.70;;;;;;;21.89;45.53;101350.03;4986719;28;20096;-90
2022/06/20 11:38:52;;;;;;;4.63;1.33;;;;;;;21.60;45.06;101360.19;4982865;28;20427;-88
2022/06/20 11:41:50;;;;;;;4.95;1.38;;;;;;;21.59;46.29;101361.25;4956716;28;20125;-88
2022/06/20 11:44:38;;;;;;;6.78;1.15;;;;;;;22.25;45.80;101354.53;4967161;28;20035;-88
2022/06/20 11:47:22;;;;;;;5.82;1.42;;;;;;;22.70;44.91;101348.91;4987102;28;20034;-89
2022/06/20 11:50:03;;;;;;;3.80;1.33;;;;;;;22.82;42.40;101340.22;4955000;28;20042;-88
2022/06/20 11:53:02;;;;;;;3.28;1.20;;;;;;;22.94;43.69;101343.69;4971154;28;20038;-90
2022/06/20 11:55:39;;;;;;;4.38;1.40;;;;;;;22.65;45.19;101343.50;4970117;28;20070;-86
2022/06/20 11:58:10;;;;;;;8.93;1.70;;;;;;;22.41;45.34;101352.31;4977152;28;20037;-88
2022/06/20 12:00:53;;;;;;;6.70;3.58;;;;;;;22.33;46.78;101343.66;4966368;28;20503;-87
2022/06/20 12:03:30;;;;;;;6.47;1.77;;;;;;;22.81;43.15;101341.25;4976070;28;20408;-89
2022/06/20 12:06:14;;;;;;;4.70;1.90;;;;;;;23.36;42.13;101330.50;4973812;28;20673;-89
2022/06/20 12:08:57;;;;;;;5.00;1.35;;;;;;;23.52;40.02;101331.66;4986455;28;20042;-90
2022/06/20 12:11:41;;;;;;;;;;;;;;;23.49;40.54;101334.78;4975253;28;20030;-88
2022/06/20 12:14:36;;;;;;;4.50;1.20;;;;;;;23.40;41.27;101323.72;4963459;28;19921;-87
2022/06/20 12:17:20;;;;;;;3.70;1.52;;;;;;;23.59;41.20;101331.56;4969398;28;20033;-89
2022/06/20 12:25:41;;;;;;;6.90;1.60;;;;;;;23.40;39.70;101329.00;4966745;28;20066;-88
2022/06/20 12:28:21;;;;;;;6.57;1.85;;;;;;;23.22;40.12;101323.81;4959429;28;20395;-89